createdAt,value
2022-09-29T00:03:13.892Z,43.27
2022-09-29T00:09:47.567Z,50.07
2022-09-29T00:13:24.067Z,47.63
2022-09-29T00:16:52.194Z,48.60
2022-09-29T00:20:08.597Z,45.50
2022-09-29T00:23:21.737Z,49.13
2022-09-29T00:27:33.960Z,47.83
2022-09-29T00:31:24.612Z,46.40
2022-09-29T00:35:05.042Z,52.43
2022-09-29T00:38:34.314Z,49.60
2022-09-29T00:41:55.743Z,49.30
2022-09-29T00:45:31.892Z,47.50
2022-09-29T00:48:55.740Z,49.10
2022-09-29T00:54:51.768Z,51.60
2022-09-29T00:57:26.856Z,52.53
2022-09-29T01:00:03.168Z,52.67
2022-09-29T01:02:35.309Z,56.83
2022-09-29T01:05:08.029Z,61.73
2022-09-29T01:07:36.530Z,63.20
2022-09-29T01:10:07.621Z,53.53
2022-09-29T01:13:11.955Z,54.90
2022-09-29T01:19:51.491Z,55.13
2022-09-29T01:23:54.247Z,67.47
2022-09-29T01:28:14.969Z,61.43
2022-09-29T01:32:11.315Z,62.40
2022-09-29T01:36:15.190Z,60.80
2022-09-29T01:40:08.239Z,56.40
2022-09-29T01:43:43.999Z,60.03
2022-09-29T01:53:46.564Z,69.30
2022-09-29T01:56:52.998Z,67.50
2022-09-29T02:00:26.720Z,65.80
2022-09-29T02:03:45.657Z,61.50
2022-09-29T02:07:06.616Z,60.60
2022-09-29T02:10:28.108Z,63.53
2022-09-29T02:17:43.417Z,62.57
2022-09-29T02:21:03.602Z,63.40
2022-09-29T02:24:14.181Z,64.73
2022-09-29T02:27:13.960Z,62.53
2022-09-29T02:30:27.990Z,66.10
2022-09-29T02:34:02.166Z,66.70
2022-09-29T02:37:47.219Z,64.60
2022-09-29T02:44:41.632Z,62.60
2022-09-29T02:48:01.572Z,63.03
2022-09-29T02:51:43.862Z,63.13
2022-09-29T02:55:20.241Z,64.80
2022-09-29T02:59:05.169Z,60.70
2022-09-29T03:02:30.029Z,62.37
2022-09-29T03:09:11.636Z,59.00
2022-09-29T03:12:16.219Z,60.57
2022-09-29T03:15:46.717Z,65.47
2022-09-29T03:18:48.173Z,62.93
2022-09-29T03:21:16.296Z,64.80
2022-09-29T03:23:44.546Z,67.97
2022-09-29T03:26:12.693Z,65.03
2022-09-29T03:28:40.992Z,64.50
2022-09-29T03:31:11.412Z,71.65
2022-09-29T03:33:40.592Z,68.50
2022-09-29T03:36:10.057Z,71.73
2022-09-29T03:38:38.623Z,71.80
2022-09-29T03:41:07.595Z,70.97
2022-09-29T03:43:35.863Z,69.22
2022-09-29T03:46:07.048Z,70.25
2022-09-29T03:48:36.854Z,67.97
2022-09-29T03:51:06.087Z,65.10
2022-09-29T03:53:35.725Z,66.73
2022-09-29T03:56:04.963Z,70.23
2022-09-29T03:58:33.339Z,69.97
2022-09-29T04:01:02.109Z,72.87
2022-09-29T04:03:30.772Z,72.87
2022-09-29T04:06:00.461Z,71.13
2022-09-29T04:08:28.675Z,72.10
2022-09-29T04:10:56.917Z,72.47
2022-09-29T04:13:25.150Z,70.23
2022-09-29T04:15:53.449Z,69.15
2022-09-29T04:18:21.649Z,67.97
2022-09-29T04:20:50.023Z,72.03
2022-09-29T04:23:19.686Z,72.80
2022-09-29T04:25:51.097Z,68.75
2022-09-29T04:28:19.231Z,68.97
2022-09-29T04:30:47.393Z,74.60
2022-09-29T04:33:15.810Z,74.63
2022-09-29T04:35:44.014Z,75.87
2022-09-29T04:38:12.302Z,80.57
2022-09-29T04:40:41.920Z,80.63
2022-09-29T04:43:10.199Z,81.33
2022-09-29T04:45:38.445Z,77.13
2022-09-29T04:48:07.505Z,72.97
2022-09-29T04:50:36.380Z,74.83
2022-09-29T04:53:08.402Z,74.50
2022-09-29T04:55:38.455Z,77.10
2022-09-29T04:58:07.970Z,80.83
2022-09-29T05:00:36.235Z,94.93
2022-09-29T05:03:05.103Z,85.17
2022-09-29T05:05:33.416Z,83.70
2022-09-29T05:08:04.439Z,95.87
2022-09-29T05:10:32.685Z,97.57
2022-09-29T05:13:31.837Z,84.07
2022-09-29T05:17:08.093Z,82.80
2022-09-29T05:20:37.779Z,83.43
2022-09-29T05:24:20.799Z,84.20
2022-09-29T05:27:51.644Z,81.90
2022-09-29T05:30:19.838Z,83.87
2022-09-29T05:32:48.089Z,91.17
2022-09-29T05:35:17.792Z,87.27
2022-09-29T05:37:47.214Z,88.83
2022-09-29T05:40:15.498Z,97.93
2022-09-29T05:42:45.091Z,95.13
2022-09-29T05:45:13.270Z,91.30
2022-09-29T05:47:44.037Z,92.47
2022-09-29T05:50:12.444Z,97.97
2022-09-29T05:52:42.173Z,98.30
2022-09-29T05:55:11.100Z,110.40
2022-09-29T05:57:39.533Z,184.07
2022-09-29T06:00:09.231Z,89.73
2022-09-29T06:02:37.529Z,154.13
2022-09-29T06:09:33.748Z,94.43
2022-09-29T06:13:53.321Z,92.50
2022-09-29T06:16:23.762Z,91.83
2022-09-29T06:19:41.668Z,91.90
2022-09-29T06:23:00.097Z,90.33
2022-09-29T06:26:54.939Z,97.13
2022-09-29T06:30:38.423Z,78.33
2022-09-29T06:38:30.721Z,78.37
2022-09-29T06:45:51.686Z,69.10
2022-09-29T06:49:09.194Z,65.60
2022-09-29T06:52:19.812Z,61.10
2022-09-29T06:55:31.947Z,58.78
2022-09-29T06:58:44.553Z,54.35
2022-09-29T07:08:54.327Z,45.65
2022-09-29T07:11:59.926Z,52.47
2022-09-29T07:15:58.444Z,61.28
2022-09-29T07:19:05.735Z,45.33
2022-09-29T07:22:09.665Z,57.08
2022-09-29T07:25:33.867Z,55.25
2022-09-29T07:28:58.153Z,50.15
2022-09-29T07:32:39.709Z,55.90
2022-09-29T07:36:00.300Z,51.33
2022-09-29T07:40:34.425Z,44.15
2022-09-29T07:47:25.347Z,34.83
2022-09-29T07:49:37.050Z,39.50
2022-09-29T07:53:36.671Z,30.67
2022-09-29T07:56:52.426Z,32.65
2022-09-29T08:00:14.468Z,30.75
2022-09-29T08:03:26.895Z,31.85
2022-09-29T08:06:38.923Z,26.52
2022-09-29T08:14:02.904Z,21.58
2022-09-29T08:17:15.522Z,17.33
2022-09-29T08:20:25.716Z,17.17
2022-09-29T08:27:23.354Z,14.77
2022-09-29T08:31:13.654Z,13.18
2022-09-29T08:34:36.207Z,13.48
2022-09-29T08:38:07.232Z,9.23
2022-09-29T08:41:29.438Z,6.75
2022-09-29T08:44:37.776Z,5.85
2022-09-29T08:48:13.121Z,5.88
2022-09-29T08:51:49.825Z,3.53
2022-09-29T08:58:23.193Z,5.18
2022-09-29T09:02:12.689Z,1.13
2022-09-29T09:10:21.694Z,1.38
2022-09-29T09:14:19.198Z,2.05
2022-09-29T09:18:01.000Z,2.70
2022-09-29T09:21:16.157Z,2.70
2022-09-29T09:24:37.187Z,3.20
2022-09-29T09:27:51.644Z,0.73
2022-09-29T09:31:09.162Z,2.17
2022-09-29T09:34:42.995Z,4.85
2022-09-29T09:37:58.330Z,1.08
2022-09-29T09:41:20.857Z,2.00
2022-09-29T09:44:30.989Z,0.90
2022-09-29T09:48:24.058Z,0.90
2022-09-29T09:51:32.123Z,0.95
2022-09-29T09:55:07.410Z,0.65
2022-09-29T09:58:34.434Z,0.90
2022-09-29T10:05:12.798Z,1.35
2022-09-29T10:08:25.481Z,3.20
2022-09-29T10:11:39.331Z,0.43
2022-09-29T10:18:30.443Z,3.42
2022-09-29T10:33:13.278Z,0.50
2022-09-29T10:35:43.421Z,0.80
2022-09-29T10:38:19.046Z,2.47
2022-09-29T10:40:58.401Z,0.82
2022-09-29T10:43:28.663Z,0.00
2022-09-29T10:46:54.722Z,1.10
2022-09-29T10:49:24.534Z,0.47
2022-09-29T10:51:57.545Z,0.52
2022-09-29T10:54:27.341Z,0.00
2022-09-29T10:56:59.961Z,0.57
2022-09-29T11:00:17.805Z,1.00
2022-09-29T11:02:49.172Z,0.20
2022-09-29T11:06:04.565Z,0.30
2022-09-29T11:09:43.371Z,0.08
2022-09-29T11:13:21.122Z,3.85
2022-09-29T11:20:03.914Z,0.00
2022-09-29T11:26:56.465Z,0.28
2022-09-29T11:30:04.399Z,0.10
2022-09-29T11:33:38.606Z,0.03
2022-09-29T11:37:02.181Z,0.20
2022-09-29T11:40:42.089Z,1.45
2022-09-29T11:44:25.433Z,1.48
2022-09-29T11:47:35.868Z,0.30
2022-09-29T11:51:02.923Z,0.22
2022-09-29T11:54:01.656Z,0.10
2022-09-29T11:56:42.733Z,1.20
2022-09-29T11:59:43.032Z,0.25
2022-09-29T12:02:32.795Z,0.43
2022-09-29T12:05:11.853Z,0.40
2022-09-29T12:07:50.799Z,1.45
2022-09-29T12:10:31.545Z,0.22
2022-09-29T12:13:12.548Z,0.70
2022-09-29T12:15:51.144Z,0.82
2022-09-29T12:18:55.665Z,1.85
2022-09-29T12:22:20.761Z,0.73
2022-09-29T12:26:15.717Z,0.52
2022-09-29T12:30:08.021Z,0.10
2022-09-29T12:37:33.272Z,1.10
2022-09-29T12:40:51.132Z,0.10
2022-09-29T12:47:46.715Z,0.10
2022-09-29T12:51:28.193Z,0.43
2022-09-29T12:55:21.563Z,2.40
2022-09-29T13:02:06.282Z,0.93
2022-09-29T13:06:12.955Z,0.10
2022-09-29T13:09:48.133Z,1.17
2022-09-29T13:16:34.696Z,1.70
2022-09-29T13:20:10.348Z,1.23
2022-09-29T13:23:34.733Z,0.03
2022-09-29T13:31:10.604Z,0.10
2022-09-29T13:37:59.817Z,0.95
2022-09-29T13:41:32.377Z,2.55
2022-09-29T13:44:58.696Z,0.20
2022-09-29T13:48:38.974Z,0.40
2022-09-29T13:56:09.206Z,2.67
2022-09-29T13:59:38.477Z,0.38
2022-09-29T14:07:09.618Z,1.65
2022-09-29T14:10:35.872Z,3.33
2022-09-29T14:17:37.729Z,0.65
2022-09-29T14:21:32.827Z,2.20
2022-09-29T14:25:04.257Z,1.13
2022-09-29T14:28:14.744Z,1.65
2022-09-29T14:31:43.695Z,0.17
2022-09-29T14:38:22.113Z,0.90
2022-09-29T14:41:44.834Z,0.52
2022-09-29T14:44:18.391Z,0.05
2022-09-29T14:47:20.170Z,0.10
2022-09-29T14:50:47.106Z,0.00
2022-09-29T14:54:29.658Z,0.63
2022-09-29T14:58:06.696Z,0.57
2022-09-29T15:04:57.796Z,1.40
2022-09-29T15:08:10.779Z,0.20
2022-09-29T15:11:21.492Z,0.00
2022-09-29T15:14:41.760Z,0.03
2022-09-29T15:31:51.665Z,0.17
2022-09-29T15:35:16.170Z,1.98
2022-09-29T15:38:43.055Z,0.20
2022-09-29T15:42:01.095Z,0.20
2022-09-29T15:48:58.239Z,1.27
2022-09-29T15:51:57.620Z,4.50
2022-09-29T15:54:27.275Z,1.25
2022-09-29T15:57:13.221Z,0.10
2022-09-29T15:59:48.952Z,0.10
2022-09-29T16:02:23.784Z,0.00
2022-09-29T16:04:56.275Z,0.10
2022-09-29T16:07:29.163Z,1.10
2022-09-29T16:10:04.930Z,0.10
2022-09-29T16:12:38.948Z,0.10
2022-09-29T16:15:16.990Z,0.00
2022-09-29T16:17:45.295Z,1.13
2022-09-29T16:20:17.530Z,0.45
2022-09-29T16:22:50.115Z,2.53
2022-09-29T16:25:25.670Z,0.13
2022-09-29T16:27:57.339Z,2.08
2022-09-29T16:30:32.465Z,1.50
2022-09-29T16:33:13.203Z,0.10
2022-09-29T16:36:30.905Z,1.67
2022-09-29T16:39:50.556Z,0.52
2022-09-29T16:43:07.764Z,0.85
2022-09-29T16:46:50.329Z,0.00
2022-09-29T16:50:17.375Z,1.20
2022-09-29T16:53:33.078Z,0.30
2022-09-29T16:56:59.083Z,0.00
2022-09-29T17:00:20.464Z,6.60
2022-09-29T17:07:03.823Z,0.43
2022-09-29T17:10:24.374Z,1.33
2022-09-29T17:13:42.208Z,1.75
2022-09-29T17:21:36.321Z,3.35
2022-09-29T17:28:12.643Z,0.20
2022-09-29T17:31:34.050Z,0.20
2022-09-29T17:38:58.331Z,1.02
2022-09-29T17:42:03.092Z,0.50
2022-09-29T17:45:25.443Z,0.30
2022-09-29T17:48:42.055Z,0.93
2022-09-29T17:52:03.183Z,0.98
2022-09-29T17:55:57.522Z,4.60
2022-09-29T17:59:19.597Z,4.13
2022-09-29T18:02:39.434Z,0.95
2022-09-29T18:06:39.573Z,1.95
2022-09-29T18:10:04.429Z,1.67
2022-09-29T18:13:22.108Z,2.65
2022-09-29T18:16:33.169Z,6.28
2022-09-29T18:19:34.699Z,3.35
2022-09-29T18:22:42.502Z,3.67
2022-09-29T18:26:02.054Z,2.95
2022-09-29T18:29:29.537Z,2.80
2022-09-29T18:33:13.662Z,2.70
2022-09-29T18:36:29.789Z,2.33
2022-09-29T18:39:47.950Z,5.35
2022-09-29T18:43:05.481Z,5.45
2022-09-29T18:46:44.387Z,7.05
2022-09-29T18:50:34.738Z,4.53
2022-09-29T18:54:23.037Z,7.72
2022-09-29T18:57:37.192Z,4.07
2022-09-29T19:00:46.991Z,5.00
2022-09-29T19:04:00.830Z,5.38
2022-09-29T19:07:08.210Z,4.43
2022-09-29T19:10:22.847Z,6.57
2022-09-29T19:13:37.000Z,5.55
2022-09-29T19:16:48.334Z,6.15
2022-09-29T19:20:06.910Z,9.82
2022-09-29T19:23:17.114Z,8.80
2022-09-29T19:29:08.273Z,6.22
2022-09-29T19:32:40.109Z,10.63
2022-09-29T19:35:44.059Z,6.22
2022-09-29T19:39:14.964Z,7.68
2022-09-29T19:42:29.831Z,9.85
2022-09-29T19:46:38.903Z,9.90
2022-09-29T19:50:34.376Z,9.25
2022-09-29T19:54:21.658Z,9.68
2022-09-29T19:57:49.832Z,10.32
2022-09-29T20:01:13.305Z,14.73
2022-09-29T20:08:07.421Z,15.53
2022-09-29T20:11:42.678Z,15.33
2022-09-29T20:14:47.302Z,22.58
2022-09-29T20:18:04.584Z,21.55
2022-09-29T20:21:36.433Z,23.40
2022-09-29T20:25:31.039Z,24.80
2022-09-29T20:28:53.043Z,21.90
2022-09-29T20:35:57.625Z,20.67
2022-09-29T20:39:17.286Z,21.00
2022-09-29T20:42:18.534Z,21.23
2022-09-29T20:45:51.015Z,21.55
2022-09-29T20:53:34.947Z,21.75
2022-09-29T21:01:09.477Z,23.95
2022-09-29T21:04:54.253Z,41.00
2022-09-29T21:08:22.854Z,34.73
2022-09-29T21:11:59.741Z,29.37
2022-09-29T21:15:12.517Z,30.10
2022-09-29T21:32:36.411Z,40.10
2022-09-29T21:35:50.861Z,44.00
2022-09-29T21:43:18.327Z,43.27
2022-09-29T21:46:47.475Z,46.70
2022-09-29T21:57:07.606Z,51.63
2022-09-29T22:00:07.392Z,48.90
2022-09-29T22:03:17.129Z,46.87
2022-09-29T22:06:58.528Z,45.57
2022-09-29T22:10:11.586Z,42.60
2022-09-29T22:16:59.787Z,54.23
2022-09-29T22:20:06.609Z,54.43
2022-09-29T22:23:09.753Z,53.13
2022-09-29T22:34:45.482Z,44.73
2022-09-29T22:37:54.566Z,38.07
2022-09-29T22:44:51.696Z,39.93
2022-09-29T22:47:50.610Z,45.30
2022-09-29T22:50:56.813Z,50.70
2022-09-29T22:54:05.441Z,42.57
2022-09-29T23:00:47.654Z,45.30
2022-09-29T23:03:58.825Z,51.33
2022-09-29T23:07:07.120Z,48.57
2022-09-29T23:10:21.080Z,57.57
2022-09-29T23:14:01.271Z,51.20
2022-09-29T23:23:58.052Z,49.37
2022-09-29T23:29:57.056Z,56.73
2022-09-29T23:33:40.209Z,54.00
2022-09-29T23:36:54.351Z,52.43
2022-09-29T23:39:58.720Z,54.37
2022-09-29T23:43:23.196Z,53.30
2022-09-29T23:47:02.698Z,53.77
2022-09-29T23:53:35.000Z,61.53
2022-09-29T23:56:32.625Z,62.50
2022-09-29T23:59:49.599Z,49.67
